Time;durP1;ratioP1;P1;durP2;ratioP2;P2;SDS_P1;SDS_P2;PMS_P1;PMS_P2;Temp;Humidity;BMP_temperature;BMP_pressure;BME280_temperature;BME280_humidity;BME280_pressure;Samples;Min_cycle;Max_cycle;Signal;HPM_P1;HPM_P2
2023/06/27 00:01:39;;;;;;;10.77;9.15;;;;;;;20.56;100.00;99220.59;5072719;28;20028;-93
2023/06/27 00:04:05;;;;;;;11.65;9.55;;;;;;;20.59;100.00;99224.72;5072324;28;20082;-92
2023/06/27 00:06:31;;;;;;;10.40;9.40;;;;;;;20.49;100.00;99224.78;5072566;28;20456;-93
2023/06/27 00:08:56;;;;;;;11.57;9.30;;;;;;;20.38;100.00;99209.88;5072064;28;20064;-92
2023/06/27 00:11:22;;;;;;;11.57;9.07;;;;;;;20.51;100.00;99230.75;5072294;28;20447;-92
2023/06/27 00:13:48;;;;;;;10.65;9.55;;;;;;;20.46;100.00;99240.91;5072260;28;20028;-92
2023/06/27 00:16:15;;;;;;;10.35;9.40;;;;;;;20.44;100.00;99243.69;5071931;28;20414;-93
2023/06/27 00:18:47;;;;;;;12.10;9.55;;;;;;;20.33;100.00;99238.56;5072171;28;20036;-93
2023/06/27 00:21:16;;;;;;;12.23;9.02;;;;;;;20.21;100.00;99237.06;5071909;28;20044;-92
2023/06/27 00:23:43;;;;;;;11.68;9.85;;;;;;;20.35;100.00;99263.09;5068164;28;20504;-93
2023/06/27 00:26:10;;;;;;;9.00;8.10;;;;;;;20.37;100.00;99262.94;5053014;28;20499;-93
2023/06/27 00:28:35;;;;;;;11.85;8.80;;;;;;;20.34;100.00;99269.31;5053389;28;20031;-92
2023/06/27 00:31:02;;;;;;;11.18;8.90;;;;;;;20.14;100.00;99241.25;5053050;28;20392;-93
2023/06/27 00:33:27;;;;;;;10.30;8.48;;;;;;;20.16;100.00;99269.22;5053278;28;20498;-93
2023/06/27 00:35:53;;;;;;;10.48;8.80;;;;;;;20.05;100.00;99274.66;5053045;28;20048;-92
2023/06/27 00:38:18;;;;;;;11.43;8.98;;;;;;;20.06;100.00;99271.06;5052613;28;20116;-92
2023/06/27 00:40:44;;;;;;;9.75;8.25;;;;;;;20.01;100.00;99268.00;5052939;28;20021;-93
2023/06/27 00:43:09;;;;;;;9.88;8.90;;;;;;;19.95;100.00;99265.94;5052859;28;20112;-92
2023/06/27 00:45:35;;;;;;;8.65;7.75;;;;;;;19.89;100.00;99277.91;5052991;28;20053;-90
2023/06/27 00:48:02;;;;;;;9.43;8.52;;;;;;;19.87;100.00;99286.94;5052638;28;20029;-90
2023/06/27 00:50:30;;;;;;;14.48;8.88;;;;;;;19.83;100.00;99286.38;5052795;28;20033;-93
2023/06/27 00:52:57;;;;;;;10.70;9.27;;;;;;;19.82;100.00;99291.81;5053064;28;20087;-93
2023/06/27 00:55:23;;;;;;;12.30;9.18;;;;;;;19.75;100.00;99299.44;5052954;28;20029;-93
2023/06/27 00:57:49;;;;;;;10.18;9.07;;;;;;;19.69;100.00;99295.56;5051544;28;20040;-93
2023/06/27 01:00:18;;;;;;;12.35;8.50;;;;;;;19.68;100.00;99293.88;5052502;28;20021;-93
2023/06/27 01:02:46;;;;;;;9.30;8.30;;;;;;;19.67;100.00;99296.66;5052609;28;20036;-92
2023/06/27 01:05:14;;;;;;;9.57;7.78;;;;;;;19.63;100.00;99296.09;5052653;28;20025;-92
2023/06/27 01:07:42;;;;;;;9.60;8.25;;;;;;;19.62;100.00;99288.31;5052665;28;20029;-93
2023/06/27 01:10:57;;;;;;;9.55;8.05;;;;;;;19.59;100.00;99291.19;5052567;28;20431;-93
2023/06/27 01:13:29;;;;;;;9.40;7.85;;;;;;;19.54;100.00;99282.84;4975637;28;20536;-93
2023/06/27 01:15:57;;;;;;;11.95;8.38;;;;;;;19.55;100.00;99281.88;4975661;28;20062;-93
2023/06/27 01:18:25;;;;;;;10.13;7.85;;;;;;;19.50;100.00;99290.22;4975439;28;20038;-93
2023/06/27 01:20:51;;;;;;;11.57;8.63;;;;;;;19.42;100.00;99295.34;4975819;28;20026;-94
2023/06/27 01:23:39;;;;;;;10.45;8.45;;;;;;;19.40;100.00;99295.47;4975493;28;20040;-94
2023/06/27 01:26:09;;;;;;;10.40;8.05;;;;;;;19.30;100.00;99296.41;4975357;28;20026;-93
2023/06/27 01:28:36;;;;;;;10.18;8.80;;;;;;;19.31;100.00;99300.75;4975349;28;20053;-93
2023/06/27 01:31:03;;;;;;;12.18;9.25;;;;;;;19.28;100.00;99311.56;4975079;28;20038;-93
2023/06/27 01:33:56;;;;;;;11.88;10.10;;;;;;;19.27;100.00;99310.75;4975395;28;20117;-93
2023/06/27 01:36:38;;;;;;;11.80;9.73;;;;;;;19.26;100.00;99306.44;4971703;28;20113;-93
2023/06/27 01:39:10;;;;;;;12.32;9.07;;;;;;;19.25;100.00;99306.56;4955570;28;20047;-93
2023/06/27 01:41:39;;;;;;;12.38;9.57;;;;;;;19.25;100.00;99314.47;4955877;28;20137;-93
2023/06/27 01:44:06;;;;;;;10.90;9.60;;;;;;;19.20;100.00;99304.31;4955500;28;20097;-93
2023/06/27 01:46:33;;;;;;;11.35;10.15;;;;;;;19.09;100.00;99275.41;4955666;28;20105;-92
2023/06/27 01:49:01;;;;;;;12.57;10.23;;;;;;;19.26;100.00;99308.25;4955831;28;20089;-93
2023/06/27 01:51:26;;;;;;;13.35;10.73;;;;;;;18.79;100.00;99234.03;5010362;28;20404;-93
2023/06/27 01:53:52;;;;;;;12.38;10.07;;;;;;;19.21;100.00;99306.00;5014383;28;20025;-90
2023/06/27 01:56:18;;;;;;;11.75;10.38;;;;;;;19.24;100.00;99318.09;5013662;28;20049;-91
2023/06/27 01:58:43;;;;;;;12.18;10.95;;;;;;;19.21;100.00;99300.72;5013950;28;20048;-90
2023/06/27 02:01:09;;;;;;;15.93;11.98;;;;;;;19.22;100.00;99310.31;5029852;28;20084;-90
2023/06/27 02:03:35;;;;;;;12.68;11.35;;;;;;;19.28;100.00;99316.84;5014069;28;20453;-91
2023/06/27 02:06:00;;;;;;;12.45;11.15;;;;;;;19.30;100.00;99313.13;5014030;28;20480;-90
2023/06/27 02:08:26;;;;;;;13.55;11.70;;;;;;;19.22;100.00;99297.13;5050623;28;20037;-91
2023/06/27 02:10:51;;;;;;;12.82;11.43;;;;;;;19.34;100.00;99317.16;5053450;28;20040;-90
2023/06/27 02:13:17;;;;;;;13.20;11.82;;;;;;;19.35;100.00;99318.84;5053230;28;20032;-93
2023/06/27 02:15:43;;;;;;;14.98;13.30;;;;;;;19.38;100.00;99318.56;5049854;28;20040;-93
2023/06/27 02:18:08;;;;;;;14.30;12.90;;;;;;;19.36;100.00;99317.03;5033148;28;20056;-93
2023/06/27 02:20:34;;;;;;;18.33;15.82;;;;;;;19.40;100.00;99316.63;5033448;28;20037;-93
2023/06/27 02:22:59;;;;;;;17.42;15.30;;;;;;;19.36;100.00;99312.56;5033378;28;20033;-94
2023/06/27 02:25:25;;;;;;;15.68;14.13;;;;;;;19.33;100.00;99312.00;5033093;28;20400;-92
2023/06/27 02:27:51;;;;;;;18.88;16.35;;;;;;;19.38;100.00;99312.44;5033387;28;20040;-91
2023/06/27 02:30:16;;;;;;;17.92;16.08;;;;;;;19.26;100.00;99306.44;5033004;28;20432;-89
2023/06/27 02:32:41;;;;;;;18.52;16.58;;;;;;;19.29;100.00;99315.88;5018905;28;20051;-90
2023/06/27 02:35:08;;;;;;;15.75;14.25;;;;;;;19.24;100.00;99320.75;5013413;28;20124;-90
2023/06/27 02:37:33;;;;;;;15.77;14.13;;;;;;;19.26;100.00;99318.81;5013262;28;20049;-90
2023/06/27 02:39:59;;;;;;;15.90;14.30;;;;;;;19.27;100.00;99328.41;5013495;28;20463;-91
2023/06/27 02:42:24;;;;;;;16.02;14.52;;;;;;;19.29;100.00;99323.81;5013176;28;20045;-90
2023/06/27 02:44:50;;;;;;;16.90;14.35;;;;;;;19.29;100.00;99329.91;5013278;28;20217;-91
2023/06/27 02:47:15;;;;;;;17.95;15.23;;;;;;;19.26;100.00;99334.66;5044783;28;20045;-90
2023/06/27 02:49:42;;;;;;;17.58;14.20;;;;;;;19.27;100.00;99337.16;5050922;28;20419;-91
2023/06/27 02:52:08;;;;;;;19.27;15.10;;;;;;;19.26;100.00;99340.78;5050585;28;20021;-90
2023/06/27 02:54:33;;;;;;;15.82;14.00;;;;;;;19.20;100.00;99341.28;5050785;28;20033;-90
2023/06/27 02:56:59;;;;;;;14.85;13.45;;;;;;;19.13;100.00;99341.00;5050586;28;20056;-90
2023/06/27 02:59:25;;;;;;;16.52;14.35;;;;;;;19.11;100.00;99339.47;5050273;28;20075;-91
2023/06/27 03:01:50;;;;;;;14.40;12.90;;;;;;;19.13;100.00;99343.66;5050864;28;20071;-91
2023/06/27 03:04:22;;;;;;;14.90;12.52;;;;;;;18.96;100.00;99317.84;5050470;28;20037;-91
2023/06/27 03:06:49;;;;;;;14.25;12.75;;;;;;;19.10;100.00;99343.91;5050604;28;20021;-91
2023/06/27 03:09:15;;;;;;;15.75;12.30;;;;;;;19.13;100.00;99338.38;5050237;28;20399;-91
2023/06/27 03:11:41;;;;;;;12.63;11.32;;;;;;;19.15;100.00;99346.97;5050539;28;20389;-93
2023/06/27 03:14:07;;;;;;;12.85;11.50;;;;;;;19.15;100.00;99348.78;5050631;28;20028;-90
2023/06/27 03:16:32;;;;;;;12.85;10.95;;;;;;;19.10;100.00;99343.06;5050407;28;20032;-90
2023/06/27 03:18:58;;;;;;;17.23;12.38;;;;;;;19.10;100.00;99338.63;5050600;28;20373;-91
2023/06/27 03:21:23;;;;;;;12.43;11.13;;;;;;;19.11;100.00;99342.94;5051864;28;20033;-91
2023/06/27 03:23:49;;;;;;;14.55;12.98;;;;;;;19.06;100.00;99344.31;5054468;28;20086;-90
2023/06/27 03:26:15;;;;;;;13.38;11.40;;;;;;;19.09;100.00;99358.06;5054454;28;20060;-91
2023/06/27 03:28:40;;;;;;;11.25;10.18;;;;;;;19.12;100.00;99349.88;5054539;28;20040;-91
2023/06/27 03:31:06;;;;;;;13.63;10.82;;;;;;;18.92;100.00;99329.66;5054559;28;20443;-90
2023/06/27 03:33:32;;;;;;;13.18;10.93;;;;;;;19.09;100.00;99350.16;5054282;28;20087;-91
2023/06/27 03:35:58;;;;;;;12.85;10.77;;;;;;;19.10;100.00;99351.00;5054439;28;20071;-91
2023/06/27 03:38:23;;;;;;;17.10;12.20;;;;;;;19.06;100.00;99360.13;5053992;28;20136;-90
2023/06/27 03:40:49;;;;;;;15.80;12.20;;;;;;;19.05;100.00;99354.03;5054274;28;20384;-90
2023/06/27 03:43:16;;;;;;;15.40;11.98;;;;;;;19.01;100.00;99349.97;5053872;28;20097;-91
2023/06/27 03:45:42;;;;;;;14.07;11.07;;;;;;;18.97;100.00;99355.66;5054121;28;20028;-91
2023/06/27 03:48:08;;;;;;;13.40;11.57;;;;;;;18.64;100.00;99308.25;5054494;28;20385;-91
2023/06/27 03:50:34;;;;;;;12.75;10.05;;;;;;;18.93;100.00;99358.56;5054090;28;20025;-90
2023/06/27 03:53:03;;;;;;;13.90;10.43;;;;;;;18.82;100.00;99361.25;5054313;28;20423;-91
2023/06/27 03:55:28;;;;;;;13.57;9.90;;;;;;;18.85;100.00;99368.09;5053914;28;20079;-91
2023/06/27 03:57:54;;;;;;;14.13;9.93;;;;;;;18.91;100.00;99378.94;5054124;28;20442;-93
2023/06/27 04:00:20;;;;;;;12.15;10.52;;;;;;;18.87;100.00;99376.69;5053944;28;20082;-93
2023/06/27 04:02:45;;;;;;;15.88;9.80;;;;;;;18.87;100.00;99380.19;5054025;28;20046;-93
2023/06/27 04:05:11;;;;;;;10.43;9.35;;;;;;;18.88;100.00;99373.13;5053639;28;20033;-93
2023/06/27 04:07:37;;;;;;;10.40;9.00;;;;;;;18.83;100.00;99373.50;5054013;28;20021;-90
2023/06/27 04:10:02;;;;;;;11.00;8.45;;;;;;;18.83;100.00;99385.84;5053838;28;20040;-91
2023/06/27 04:12:28;;;;;;;14.15;9.05;;;;;;;18.83;100.00;99375.28;5053334;28;20173;-90
2023/06/27 04:14:54;;;;;;;8.55;7.65;;;;;;;18.85;100.00;99383.94;5072517;28;20400;-91
2023/06/27 04:17:19;;;;;;;14.82;8.45;;;;;;;19.01;100.00;99384.28;5071978;28;20064;-91
2023/06/27 04:19:45;;;;;;;10.35;7.85;;;;;;;19.09;100.00;99386.28;5072221;28;20032;-91
2023/06/27 04:22:10;;;;;;;11.40;8.48;;;;;;;19.20;100.00;99402.00;5072295;28;20028;-91
2023/06/27 04:24:36;;;;;;;13.70;8.15;;;;;;;19.19;100.00;99406.47;5072014;28;20048;-91
2023/06/27 04:27:02;;;;;;;10.70;8.00;;;;;;;19.17;100.00;99402.28;5072139;28;20044;-90
2023/06/27 04:29:27;;;;;;;8.25;7.18;;;;;;;19.15;100.00;99410.34;5071967;28;20067;-93
2023/06/27 04:31:53;;;;;;;10.85;6.88;;;;;;;19.16;100.00;99411.16;5071903;28;20398;-93
2023/06/27 04:34:18;;;;;;;8.80;6.78;;;;;;;18.94;100.00;99380.50;5071731;28;20040;-93
2023/06/27 04:36:44;;;;;;;7.32;6.07;;;;;;;19.11;100.00;99416.84;5071969;28;20029;-94
2023/06/27 04:39:10;;;;;;;7.68;6.70;;;;;;;19.12;100.00;99423.78;5071719;28;20055;-90
2023/06/27 04:41:36;;;;;;;10.07;6.13;;;;;;;19.18;100.00;99414.53;5071556;28;20071;-90
2023/06/27 04:44:01;;;;;;;9.73;6.07;;;;;;;19.32;100.00;99430.00;5071828;28;20128;-90
2023/06/27 04:46:28;;;;;;;9.15;5.78;;;;;;;19.35;99.76;99424.47;5057775;28;20464;-90
2023/06/27 04:48:56;;;;;;;7.75;5.53;;;;;;;19.41;98.40;99420.44;5071716;28;20500;-90
2023/06/27 04:51:26;;;;;;;8.10;5.68;;;;;;;19.62;97.74;99423.88;5071524;28;20032;-90
2023/06/27 04:53:52;;;;;;;8.98;5.82;;;;;;;19.52;96.20;99417.72;5071668;28;20036;-90
2023/06/27 04:56:17;;;;;;;7.60;6.07;;;;;;;19.47;95.99;99421.69;5071353;28;20102;-90
2023/06/27 04:58:43;;;;;;;8.60;5.50;;;;;;;19.23;95.66;99419.41;5071643;28;20079;-90
2023/06/27 05:01:09;;;;;;;6.25;5.47;;;;;;;19.33;96.76;99425.56;5071873;28;20419;-91
2023/06/27 05:03:37;;;;;;;6.60;5.15;;;;;;;19.55;95.32;99429.81;5071108;28;20051;-90
2023/06/27 05:06:03;;;;;;;6.15;4.70;;;;;;;19.97;94.54;99429.66;5054799;28;20032;-89
2023/06/27 05:08:28;;;;;;;7.90;4.93;;;;;;;20.29;92.85;99419.69;5054372;28;20047;-89
2023/06/27 05:10:53;;;;;;;6.97;4.63;;;;;;;20.68;91.21;99430.25;5054695;28;20428;-89
2023/06/27 05:13:19;;;;;;;7.78;4.47;;;;;;;21.28;88.57;99422.88;5054396;28;20384;-90
2023/06/27 05:15:44;;;;;;;6.00;4.22;;;;;;;22.16;84.03;99423.25;5054555;28;20388;-88
2023/06/27 05:18:09;;;;;;;5.40;4.45;;;;;;;23.24;79.40;99414.16;5054560;28;20641;-88
2023/06/27 05:20:35;;;;;;;8.25;4.60;;;;;;;24.15;75.47;99419.66;5057036;28;20045;-89
2023/06/27 05:23:05;;;;;;;8.63;4.57;;;;;;;24.82;73.16;99432.84;5052376;28;20044;-88
2023/06/27 05:25:31;;;;;;;5.00;4.28;;;;;;;24.88;72.13;99413.50;5051912;28;20513;-88
2023/06/27 05:27:56;;;;;;;6.50;3.83;;;;;;;24.62;72.27;99420.88;5053770;28;20053;-88
2023/06/27 05:30:21;;;;;;;4.20;3.28;;;;;;;24.40;72.48;99438.34;5052098;28;20116;-89
2023/06/27 05:32:47;;;;;;;7.00;3.83;;;;;;;24.07;72.72;99438.25;5052231;28;20025;-90
2023/06/27 05:35:12;;;;;;;7.07;3.60;;;;;;;23.75;73.18;99438.16;5052178;28;20036;-90
2023/06/27 05:37:38;;;;;;;5.97;3.83;;;;;;;23.49;73.14;99439.03;5051585;28;20515;-90
2023/06/27 05:40:04;;;;;;;5.30;3.58;;;;;;;23.56;73.12;99439.22;5052052;28;20029;-89
2023/06/27 05:42:29;;;;;;;7.03;3.75;;;;;;;23.81;72.14;99438.34;5053092;28;20032;-90
2023/06/27 05:44:55;;;;;;;6.78;3.38;;;;;;;23.50;72.74;99442.50;5051428;28;20392;-91
2023/06/27 05:47:20;;;;;;;4.47;3.28;;;;;;;23.23;74.44;99456.84;5051697;28;20487;-89
2023/06/27 05:49:47;;;;;;;5.03;3.75;;;;;;;22.97;74.45;99454.19;5070417;28;20360;-90
2023/06/27 05:52:13;;;;;;;6.45;3.83;;;;;;;22.88;74.06;99451.44;5053786;28;20036;-89
2023/06/27 05:54:38;;;;;;;6.32;3.58;;;;;;;22.95;73.32;99450.84;5070036;28;20154;-90
2023/06/27 05:57:04;;;;;;;5.07;3.67;;;;;;;22.80;73.12;99454.03;5053662;28;20028;-90
2023/06/27 05:59:29;;;;;;;7.10;3.63;;;;;;;22.66;73.18;99452.75;5070065;28;20133;-90
2023/06/27 06:01:55;;;;;;;5.68;3.90;;;;;;;22.56;73.24;99441.38;5070316;28;20070;-89
2023/06/27 06:04:20;;;;;;;7.93;3.63;;;;;;;22.72;72.68;99458.44;5053193;28;20028;-90
2023/06/27 06:06:46;;;;;;;7.13;3.72;;;;;;;22.60;73.39;99452.53;5053411;28;20037;-90
2023/06/27 06:09:12;;;;;;;7.50;3.70;;;;;;;22.45;72.63;99451.41;5053331;28;20041;-89
2023/06/27 06:11:37;;;;;;;6.38;3.72;;;;;;;22.69;73.89;99456.09;5053113;28;20431;-89
2023/06/27 06:14:03;;;;;;;5.03;3.33;;;;;;;23.00;72.61;99460.00;5053365;28;20110;-89
2023/06/27 06:16:33;;;;;;;3.63;3.00;;;;;;;23.36;72.06;99444.78;5069694;28;20041;-89
2023/06/27 06:19:02;;;;;;;7.65;3.33;;;;;;;23.34;70.25;99461.84;5053293;28;20095;-90
2023/06/27 06:21:28;;;;;;;4.95;3.20;;;;;;;23.15;70.83;99470.91;5054843;28;20068;-90
2023/06/27 06:23:53;;;;;;;3.10;2.75;;;;;;;22.86;71.07;99474.66;5051156;28;20052;-89
2023/06/27 06:26:19;;;;;;;3.85;2.75;;;;;;;22.75;71.62;99461.59;5051177;28;20040;-89
2023/06/27 06:28:44;;;;;;;5.80;2.63;;;;;;;23.26;71.40;99461.81;5051253;28;20025;-89
2023/06/27 06:31:28;;;;;;;5.47;3.00;;;;;;;24.02;69.75;99461.84;5051206;28;20025;-88
2023/06/27 06:33:53;;;;;;;4.47;2.70;;;;;;;25.02;66.40;99454.59;5052439;28;20033;-89
2023/06/27 06:36:19;;;;;;;7.65;2.95;;;;;;;26.30;64.69;99451.81;5050781;28;20043;-88
2023/06/27 06:38:44;;;;;;;6.05;3.03;;;;;;;28.00;61.15;99453.78;5050533;28;20287;-87
2023/06/27 06:41:10;;;;;;;4.13;2.50;;;;;;;29.38;56.78;99444.50;5052114;28;20025;-87
2023/06/27 06:43:35;;;;;;;6.90;3.03;;;;;;;30.24;54.56;99452.09;5050613;28;20060;-88
2023/06/27 06:46:00;;;;;;;4.57;2.55;;;;;;;30.86;52.60;99467.06;5050819;28;20021;-89
2023/06/27 06:48:26;;;;;;;2.85;2.50;;;;;;;32.15;50.24;99462.81;5051866;28;20037;-88
2023/06/27 06:50:52;;;;;;;5.25;2.75;;;;;;;33.55;47.26;99446.34;5050822;28;20025;-89
2023/06/27 06:53:18;;;;;;;6.13;3.15;;;;;;;34.87;46.00;99436.31;5050891;28;20029;-88
2023/06/27 06:55:44;;;;;;;4.55;2.60;;;;;;;35.41;43.83;99428.88;5050766;28;20029;-90
2023/06/27 06:58:09;;;;;;;4.18;2.33;;;;;;;35.28;43.38;99469.75;5051849;28;20035;-90
2023/06/27 07:00:35;;;;;;;2.95;2.17;;;;;;;33.76;44.81;99470.16;5050372;28;20029;-91
2023/06/27 07:03:00;;;;;;;3.92;2.45;;;;;;;33.07;46.26;99472.13;5050564;28;20036;-90
2023/06/27 07:05:26;;;;;;;4.60;2.20;;;;;;;33.68;46.57;99456.97;5050180;28;20456;-89
2023/06/27 07:07:51;;;;;;;6.85;2.53;;;;;;;35.02;45.16;99456.69;5050289;28;20025;-89
2023/06/27 07:10:16;;;;;;;4.32;2.30;;;;;;;35.55;43.79;99463.84;5050504;28;20029;-89
2023/06/27 07:12:42;;;;;;;2.88;2.67;;;;;;;36.30;42.49;99487.31;5050225;28;20133;-89
2023/06/27 07:15:08;;;;;;;3.72;2.55;;;;;;;36.76;40.99;99466.41;5051624;28;20025;-90
2023/06/27 07:17:34;;;;;;;4.57;2.55;;;;;;;36.48;40.49;99451.84;5050055;28;20044;-92
2023/06/27 07:20:00;;;;;;;4.63;2.38;;;;;;;37.19;40.74;99479.31;5050301;28;20025;-89
2023/06/27 07:22:26;;;;;;;2.38;2.17;;;;;;;37.80;39.96;99452.97;5050287;28;20132;-89
2023/06/27 07:24:51;;;;;;;4.30;2.72;;;;;;;38.15;39.13;99466.13;5050362;28;20111;-91
2023/06/27 07:27:17;;;;;;;3.30;2.65;;;;;;;38.00;39.65;99471.41;5051683;28;20029;-91
2023/06/27 07:29:42;;;;;;;2.70;2.30;;;;;;;38.11;40.36;99456.84;5052040;28;20033;-89
2023/06/27 07:32:10;;;;;;;3.83;2.28;;;;;;;38.05;39.40;99465.19;5050201;28;20501;-88
2023/06/27 07:34:35;;;;;;;4.53;2.40;;;;;;;37.94;39.51;99465.09;5049878;28;20029;-88
2023/06/27 07:37:00;;;;;;;3.65;2.17;;;;;;;37.62;39.43;99458.72;5051467;28;20531;-87
2023/06/27 07:39:26;;;;;;;4.15;2.70;;;;;;;37.59;39.23;99468.19;5051457;28;20032;-88
2023/06/27 07:41:51;;;;;;;4.07;2.00;;;;;;;37.50;39.25;99466.97;5050373;28;20361;-89
2023/06/27 07:44:16;;;;;;;5.78;2.15;;;;;;;37.09;39.22;99466.41;5051618;28;20021;-88
2023/06/27 07:46:42;;;;;;;2.42;2.20;;;;;;;37.05;38.60;99464.44;5051340;28;20400;-88
2023/06/27 07:49:08;;;;;;;3.40;1.95;;;;;;;37.65;37.74;99466.38;5051617;28;20029;-89
2023/06/27 07:51:33;;;;;;;4.18;2.28;;;;;;;37.91;38.03;99452.00;5051347;28;20154;-89
2023/06/27 07:54:00;;;;;;;2.35;1.98;;;;;;;38.30;37.04;99435.53;5051459;28;20025;-89
2023/06/27 07:56:25;;;;;;;3.80;2.28;;;;;;;38.11;36.86;99447.88;5049818;28;20447;-89
2023/06/27 07:58:51;;;;;;;2.63;2.25;;;;;;;38.37;36.60;99452.50;5051611;28;20033;-89
2023/06/27 08:01:16;;;;;;;3.92;2.00;;;;;;;38.23;36.20;99466.75;5051204;28;20082;-89
2023/06/27 08:03:41;;;;;;;2.33;1.90;;;;;;;38.00;36.44;99444.22;5049674;28;20465;-89
2023/06/27 08:06:07;;;;;;;3.00;2.25;;;;;;;38.15;36.42;99457.97;5051686;28;20437;-89
2023/06/27 08:08:32;;;;;;;2.35;2.00;;;;;;;37.35;36.70;99472.19;5054766;28;20496;-89
2023/06/27 08:10:58;;;;;;;3.17;2.00;;;;;;;37.29;36.75;99471.28;5053768;28;20108;-88
2023/06/27 08:13:24;;;;;;;3.03;2.13;;;;;;;36.51;36.76;99467.63;5053745;28;20389;-89
2023/06/27 08:15:49;;;;;;;4.60;2.10;;;;;;;35.39;38.59;99468.09;5053869;28;20457;-88
2023/06/27 08:18:14;;;;;;;2.97;2.00;;;;;;;34.06;39.95;99453.19;5054738;28;20036;-89
2023/06/27 08:20:40;;;;;;;3.53;2.20;;;;;;;33.11;41.50;99464.41;5055062;28;20493;-88
2023/06/27 08:23:06;;;;;;;2.40;1.90;;;;;;;31.87;42.37;99468.56;5053770;28;20461;-88
2023/06/27 08:25:32;;;;;;;3.63;2.17;;;;;;;30.84;43.81;99466.44;5053414;28;20082;-88
2023/06/27 08:27:57;;;;;;;3.70;2.50;;;;;;;30.00;44.04;99454.31;5054887;28;20021;-88
2023/06/27 08:30:23;;;;;;;4.00;2.53;;;;;;;28.91;45.30;99435.31;5054710;28;20098;-88
2023/06/27 08:32:48;;;;;;;4.03;2.38;;;;;;;28.44;46.85;99468.06;5054355;28;20113;-89
2023/06/27 08:35:14;;;;;;;5.07;2.47;;;;;;;28.13;47.88;99449.59;5053600;28;20029;-89
2023/06/27 08:37:39;;;;;;;2.80;2.03;;;;;;;27.81;48.89;99449.88;5052824;28;20500;-89
2023/06/27 08:40:05;;;;;;;2.50;1.77;;;;;;;27.53;49.61;99432.81;5054484;28;20036;-88
2023/06/27 08:42:32;;;;;;;2.47;2.00;;;;;;;27.14;50.11;99438.41;5052934;28;20029;-88
2023/06/27 08:44:59;;;;;;;3.97;2.47;;;;;;;26.70;50.69;99434.66;5053364;28;20029;-88
2023/06/27 08:47:26;;;;;;;4.25;2.28;;;;;;;26.51;51.32;99438.66;5054441;28;20037;-89
2023/06/27 08:50:00;;;;;;;5.97;2.83;;;;;;;26.13;51.94;99421.72;5054204;28;20036;-88
2023/06/27 08:52:27;;;;;;;3.60;2.30;;;;;;;26.20;52.77;99451.19;5053297;28;20044;-88
2023/06/27 08:54:55;;;;;;;4.18;2.65;;;;;;;26.10;53.00;99451.44;5054189;28;20044;-88
2023/06/27 08:57:26;;;;;;;5.30;2.50;;;;;;;25.91;54.30;99451.84;5054231;28;20052;-88
2023/06/27 08:59:55;;;;;;;4.05;2.40;;;;;;;25.81;54.17;99439.56;5052088;28;20059;-89
2023/06/27 09:02:21;;;;;;;4.75;2.20;;;;;;;25.87;54.69;99430.03;5041513;28;20481;-88
2023/06/27 09:04:47;;;;;;;6.80;1.98;;;;;;;25.70;52.79;99407.09;5034022;28;20029;-88
2023/06/27 09:07:13;;;;;;;4.55;2.80;;;;;;;25.75;53.01;99442.91;5042141;28;20037;-90
2023/06/27 09:09:38;;;;;;;6.30;2.78;;;;;;;25.59;53.82;99437.66;5049346;28;20025;-90
2023/06/27 09:12:04;;;;;;;4.28;2.25;;;;;;;25.22;54.81;99412.44;5052474;28;20029;-90
2023/06/27 09:14:30;;;;;;;3.60;2.40;;;;;;;25.25;54.74;99432.63;5053389;28;20448;-90
2023/06/27 09:16:55;;;;;;;6.53;2.58;;;;;;;25.07;54.05;99380.34;5052535;28;20055;-90
2023/06/27 09:19:21;;;;;;;5.45;2.55;;;;;;;25.54;54.91;99438.19;5051247;28;20029;-90
2023/06/27 09:21:48;;;;;;;5.45;2.38;;;;;;;25.76;54.01;99441.06;5052277;28;20025;-90
2023/06/27 09:24:14;;;;;;;2.97;2.53;;;;;;;25.66;53.82;99430.59;5048934;28;20033;-90
2023/06/27 09:26:40;;;;;;;6.40;2.40;;;;;;;25.85;53.80;99440.88;5044063;28;20036;-90
2023/06/27 09:29:06;;;;;;;5.40;2.30;;;;;;;25.91;53.87;99434.00;5053223;28;20039;-91
2023/06/27 09:31:32;;;;;;;3.90;2.20;;;;;;;25.83;54.43;99418.91;5043081;28;20045;-84
2023/06/27 09:34:09;;;;;;;5.53;2.65;;;;;;;25.80;55.26;99416.56;5043774;28;20029;-86
2023/06/27 09:36:36;;;;;;;5.25;2.78;;;;;;;25.61;53.66;99408.97;5039712;28;20052;-87
2023/06/27 09:39:09;;;;;;;4.32;2.20;;;;;;;25.55;54.51;99413.16;5031714;28;20046;-87
2023/06/27 09:41:49;;;;;;;6.78;2.60;;;;;;;25.45;54.24;99403.69;5031785;28;20025;-87
2023/06/27 09:44:19;;;;;;;3.33;2.25;;;;;;;25.51;53.62;99405.69;5033474;28;20092;-87
2023/06/27 09:46:49;;;;;;;6.68;2.35;;;;;;;25.31;53.26;99390.09;5033274;28;20035;-87
2023/06/27 09:49:15;;;;;;;6.05;2.20;;;;;;;25.44;51.30;99408.19;5031931;28;20030;-87
2023/06/27 09:51:45;;;;;;;3.45;2.55;;;;;;;25.14;51.95;99361.84;5032827;28;20477;-87
2023/06/27 09:54:12;;;;;;;4.95;2.47;;;;;;;25.16;52.17;99383.84;5031707;28;20498;-87
2023/06/27 09:56:37;;;;;;;4.38;2.10;;;;;;;25.17;53.00;99417.47;5031596;28;20029;-87
2023/06/27 09:59:10;;;;;;;6.55;2.63;;;;;;;25.29;54.03;99415.28;5031894;28;20029;-87
2023/06/27 10:01:40;;;;;;;7.47;3.03;;;;;;;25.19;53.26;99403.97;5031592;28;20029;-88
2023/06/27 10:04:07;;;;;;;4.10;2.55;;;;;;;25.09;53.92;99391.66;5033017;28;20500;-87
2023/06/27 10:06:33;;;;;;;2.92;2.17;;;;;;;25.20;53.10;99406.47;5032438;28;20104;-87
2023/06/27 10:08:59;;;;;;;7.07;2.88;;;;;;;25.22;52.35;99404.47;5033020;28;20044;-87
2023/06/27 10:11:25;;;;;;;5.50;2.33;;;;;;;25.22;50.99;99412.44;5031723;28;20721;-87
2023/06/27 10:13:51;;;;;;;4.63;1.80;;;;;;;25.16;51.57;99413.16;5031199;28;20025;-87
2023/06/27 10:16:18;;;;;;;5.82;2.10;;;;;;;25.18;51.02;99412.97;5032916;28;20057;-87
2023/06/27 10:18:43;;;;;;;4.82;2.88;;;;;;;25.21;53.10;99415.31;5032394;28;20119;-87
2023/06/27 10:21:10;;;;;;;3.88;2.28;;;;;;;25.30;52.47;99404.44;5032461;28;20072;-87
2023/06/27 10:23:39;;;;;;;5.80;3.03;;;;;;;25.32;53.07;99383.75;5048951;28;20041;-87
2023/06/27 10:26:05;;;;;;;3.95;2.50;;;;;;;25.42;52.74;99388.91;5052609;28;20029;-85
2023/06/27 10:28:31;;;;;;;4.47;2.30;;;;;;;25.62;52.95;99398.13;5049640;28;20507;-85
2023/06/27 10:30:56;;;;;;;5.00;2.55;;;;;;;25.58;50.87;99396.81;5039308;28;20083;-85
2023/06/27 10:33:31;;;;;;;3.92;2.38;;;;;;;25.61;51.45;99401.78;5040563;28;20033;-85
2023/06/27 10:36:05;;;;;;;4.53;2.28;;;;;;;25.54;51.75;99397.34;5052063;28;20029;-85
2023/06/27 10:38:39;;;;;;;3.90;2.40;;;;;;;25.44;52.05;99376.22;5052199;28;20084;-85
2023/06/27 10:41:07;;;;;;;3.22;2.22;;;;;;;25.65;51.34;99402.28;5052314;28;20481;-85
2023/06/27 10:43:38;;;;;;;3.90;2.10;;;;;;;25.56;51.18;99403.31;5052210;28;20388;-86
2023/06/27 10:46:06;;;;;;;4.65;2.42;;;;;;;25.31;51.80;99391.94;5050967;28;20027;-86
2023/06/27 10:48:33;;;;;;;4.20;2.45;;;;;;;25.20;51.12;99397.63;5052269;28;20033;-86
2023/06/27 10:51:09;;;;;;;3.63;2.35;;;;;;;25.16;52.00;99391.84;5050539;28;20029;-86
2023/06/27 10:53:41;;;;;;;4.78;2.22;;;;;;;25.13;51.37;99393.00;5050779;28;20114;-86
2023/06/27 10:56:16;;;;;;;3.17;2.08;;;;;;;24.98;52.36;99378.66;5052122;28;20032;-86
2023/06/27 10:58:45;;;;;;;4.85;2.67;;;;;;;24.92;51.48;99367.88;5050504;28;20431;-86
2023/06/27 11:01:13;;;;;;;4.10;2.15;;;;;;;25.05;51.46;99379.66;5051970;28;20544;-86
2023/06/27 11:03:42;;;;;;;4.65;2.20;;;;;;;25.02;52.03;99380.00;5052101;28;20044;-86
2023/06/27 11:06:07;;;;;;;3.53;1.90;;;;;;;25.02;52.10;99374.66;5050559;28;20028;-86
2023/06/27 11:08:33;;;;;;;4.70;2.55;;;;;;;25.10;52.76;99389.84;5051824;28;20037;-86
2023/06/27 11:10:59;;;;;;;5.13;2.45;;;;;;;25.21;51.53;99388.66;5051640;28;20025;-86
2023/06/27 11:13:27;;;;;;;4.95;2.10;;;;;;;25.30;51.54;99388.44;5050388;28;20431;-86
2023/06/27 11:15:54;;;;;;;1.98;1.67;;;;;;;25.38;51.08;99384.91;5050401;28;20021;-87
2023/06/27 11:18:21;;;;;;;4.50;1.90;;;;;;;25.51;51.11;99385.19;5051881;28;20028;-86
2023/06/27 11:20:48;;;;;;;2.20;1.95;;;;;;;25.70;50.73;99383.91;5050338;28;20036;-86
2023/06/27 11:23:14;;;;;;;2.42;1.65;;;;;;;25.83;49.76;99384.22;5051763;28;20029;-84